createdAt,value
2023-01-25T00:02:16.527Z,28.52
2023-01-25T00:04:43.510Z,29.58
2023-01-25T00:07:10.765Z,31.27
2023-01-25T00:09:37.717Z,27.52
2023-01-25T00:12:04.955Z,29.23
2023-01-25T00:14:32.115Z,27.88
2023-01-25T00:16:59.081Z,27.25
2023-01-25T00:19:26.205Z,28.88
2023-01-25T00:21:53.286Z,27.10
2023-01-25T00:24:23.150Z,28.23
2023-01-25T00:26:50.093Z,26.55
2023-01-25T00:29:17.580Z,28.02
2023-01-25T00:32:09.989Z,26.75
2023-01-25T00:37:06.920Z,27.83
2023-01-25T00:39:33.837Z,27.40
2023-01-25T00:42:00.799Z,28.50
2023-01-25T00:44:27.746Z,29.42
2023-01-25T00:46:54.921Z,27.60
2023-01-25T00:49:26.393Z,25.90
2023-01-25T00:51:54.106Z,25.65
2023-01-25T00:54:22.048Z,26.75
2023-01-25T00:56:49.347Z,27.65
2023-01-25T00:59:16.281Z,26.98
2023-01-25T01:01:43.822Z,27.70
2023-01-25T01:04:10.845Z,27.90
2023-01-25T01:06:41.189Z,30.00
2023-01-25T01:09:11.967Z,28.77
2023-01-25T01:11:38.901Z,29.73
2023-01-25T01:14:05.813Z,30.02
2023-01-25T01:16:33.040Z,29.92
2023-01-25T01:18:59.986Z,30.13
2023-01-25T01:21:26.949Z,30.65
2023-01-25T01:23:57.159Z,29.90
2023-01-25T01:26:24.771Z,31.23
2023-01-25T01:28:51.666Z,32.83
2023-01-25T01:31:23.087Z,29.98
2023-01-25T01:34:12.163Z,30.15
2023-01-25T01:36:39.213Z,30.67
2023-01-25T01:39:06.204Z,31.83
2023-01-25T01:41:33.284Z,30.25
2023-01-25T01:44:00.260Z,28.33
2023-01-25T01:46:35.198Z,29.95
2023-01-25T01:49:07.065Z,31.08
2023-01-25T01:52:05.485Z,32.17
2023-01-25T01:54:41.507Z,31.80
2023-01-25T01:57:41.213Z,29.60
2023-01-25T02:00:15.036Z,32.40
2023-01-25T02:02:43.106Z,32.35
2023-01-25T02:05:18.416Z,33.35
2023-01-25T02:07:45.537Z,33.10
2023-01-25T02:10:12.651Z,33.47
2023-01-25T02:12:41.457Z,33.83
2023-01-25T02:15:09.731Z,35.10
2023-01-25T02:17:37.872Z,35.70
2023-01-25T02:20:35.590Z,38.45
2023-01-25T02:23:28.237Z,41.20
2023-01-25T02:25:56.342Z,40.47
2023-01-25T02:28:35.087Z,38.78
2023-01-25T02:31:02.120Z,39.70
2023-01-25T02:33:30.128Z,36.10
2023-01-25T02:36:07.791Z,35.10
2023-01-25T02:38:36.075Z,36.15
2023-01-25T02:41:12.685Z,38.60
2023-01-25T02:43:41.019Z,38.20
2023-01-25T02:46:18.339Z,39.35
2023-01-25T02:48:45.355Z,39.72
2023-01-25T02:51:12.368Z,38.05
2023-01-25T02:53:40.812Z,37.45
2023-01-25T02:56:08.452Z,37.97
2023-01-25T02:58:35.860Z,41.15
2023-01-25T03:01:02.999Z,39.08
2023-01-25T03:03:29.954Z,39.83
2023-01-25T03:05:57.865Z,36.70
2023-01-25T03:08:25.347Z,40.70
2023-01-25T03:11:00.151Z,39.55
2023-01-25T03:13:29.167Z,38.15
2023-01-25T03:16:00.892Z,36.15
2023-01-25T03:18:27.996Z,38.20
2023-01-25T03:20:55.070Z,38.40
2023-01-25T03:23:22.331Z,39.03
2023-01-25T03:25:50.611Z,40.42
2023-01-25T03:28:18.478Z,37.92
2023-01-25T03:30:52.505Z,41.53
2023-01-25T03:33:19.937Z,39.03
2023-01-25T03:35:47.070Z,39.50
2023-01-25T03:38:14.373Z,37.83
2023-01-25T03:40:41.253Z,35.72
2023-01-25T03:43:08.228Z,39.03
2023-01-25T03:45:37.187Z,41.92
2023-01-25T03:48:04.402Z,41.05
2023-01-25T03:50:31.487Z,41.03
2023-01-25T03:53:07.131Z,40.05
2023-01-25T03:55:34.972Z,41.00
2023-01-25T03:58:02.236Z,42.03
2023-01-25T04:00:29.279Z,41.15
2023-01-25T04:03:00.308Z,42.97
2023-01-25T04:05:28.296Z,40.78
2023-01-25T04:07:55.498Z,41.45
2023-01-25T04:10:30.439Z,38.67
2023-01-25T04:12:57.582Z,39.95
2023-01-25T04:15:24.574Z,39.05
2023-01-25T04:17:51.634Z,41.30
2023-01-25T04:20:22.653Z,41.90
2023-01-25T04:22:50.006Z,40.95
2023-01-25T04:25:19.108Z,39.15
2023-01-25T04:27:51.134Z,41.57
2023-01-25T04:30:18.236Z,39.53
2023-01-25T04:32:46.824Z,41.85
2023-01-25T04:35:24.364Z,42.17
2023-01-25T04:37:58.225Z,43.45
2023-01-25T04:40:29.892Z,38.28
2023-01-25T04:42:57.047Z,39.83
2023-01-25T04:45:25.628Z,41.75
2023-01-25T04:48:01.027Z,42.13
2023-01-25T04:50:28.471Z,41.30
2023-01-25T04:52:55.889Z,42.38
2023-01-25T04:55:23.946Z,39.50
2023-01-25T04:57:52.310Z,38.58
2023-01-25T05:00:20.166Z,42.08
2023-01-25T05:02:49.235Z,41.88
2023-01-25T05:05:16.317Z,46.72
2023-01-25T05:07:45.960Z,40.35
2023-01-25T05:10:13.590Z,42.72
2023-01-25T05:12:52.929Z,45.10
2023-01-25T05:15:21.042Z,42.97
2023-01-25T05:17:47.952Z,43.05
2023-01-25T05:20:15.008Z,43.70
2023-01-25T05:22:42.707Z,42.92
2023-01-25T05:25:29.786Z,38.05
2023-01-25T05:27:57.347Z,41.42
2023-01-25T05:30:44.601Z,38.67
2023-01-25T05:33:22.827Z,42.80
2023-01-25T05:35:50.025Z,43.05
2023-01-25T05:38:17.324Z,43.22
2023-01-25T05:40:44.286Z,41.55
2023-01-25T05:43:12.023Z,40.95
2023-01-25T05:45:40.420Z,43.97
2023-01-25T05:48:08.395Z,45.72
2023-01-25T05:50:35.745Z,42.63
2023-01-25T05:53:09.474Z,41.78
2023-01-25T05:55:37.810Z,46.25
2023-01-25T05:58:09.215Z,46.28
2023-01-25T06:00:36.175Z,43.53
2023-01-25T06:03:03.689Z,41.50
2023-01-25T06:05:33.325Z,41.40
2023-01-25T06:08:00.522Z,45.20
2023-01-25T06:10:34.912Z,43.67
2023-01-25T06:13:01.992Z,45.22
2023-01-25T06:15:28.948Z,44.47
2023-01-25T06:18:06.185Z,44.42
2023-01-25T06:20:48.674Z,45.88
2023-01-25T06:23:15.577Z,44.80
2023-01-25T06:25:42.582Z,42.70
2023-01-25T06:28:09.594Z,41.97
2023-01-25T06:30:36.673Z,40.40
2023-01-25T06:33:03.662Z,44.95
2023-01-25T06:35:32.441Z,45.72
2023-01-25T06:37:59.540Z,46.92
2023-01-25T06:40:27.026Z,45.92
2023-01-25T06:42:54.211Z,44.67
2023-01-25T06:45:21.177Z,47.58
2023-01-25T06:47:49.056Z,48.25
2023-01-25T06:50:16.180Z,49.45
2023-01-25T06:52:43.137Z,48.95
2023-01-25T06:55:13.965Z,43.97
2023-01-25T06:57:41.058Z,44.92
2023-01-25T07:00:08.636Z,48.50
2023-01-25T07:02:36.849Z,50.28
2023-01-25T07:05:04.021Z,46.35
2023-01-25T07:07:31.036Z,45.90
2023-01-25T07:10:00.453Z,47.65
2023-01-25T07:12:28.831Z,45.33
2023-01-25T07:14:55.787Z,47.83
2023-01-25T07:17:22.821Z,48.20
2023-01-25T07:19:49.716Z,49.47
2023-01-25T07:22:18.037Z,46.50
2023-01-25T07:24:49.999Z,46.47
2023-01-25T07:27:17.514Z,47.40
2023-01-25T07:29:44.464Z,52.53
2023-01-25T07:32:14.567Z,49.95
2023-01-25T07:34:41.500Z,53.42
2023-01-25T07:37:10.171Z,55.83
2023-01-25T07:39:37.114Z,53.92
2023-01-25T07:42:04.245Z,53.88
2023-01-25T07:44:32.665Z,55.28
2023-01-25T07:47:10.699Z,60.70
2023-01-25T07:49:37.714Z,56.97
2023-01-25T07:52:05.123Z,59.97
2023-01-25T07:54:32.087Z,56.08
2023-01-25T07:56:58.992Z,59.65
2023-01-25T07:59:26.248Z,55.85
2023-01-25T08:01:53.595Z,52.83
2023-01-25T08:04:20.554Z,55.20
2023-01-25T08:06:47.521Z,54.45
2023-01-25T08:09:17.429Z,58.80
2023-01-25T08:11:44.450Z,54.50
2023-01-25T08:14:11.602Z,59.22
2023-01-25T08:16:38.607Z,57.28
2023-01-25T08:19:05.586Z,60.60
2023-01-25T08:21:34.013Z,63.03
2023-01-25T08:24:02.516Z,64.45
2023-01-25T08:26:29.569Z,60.58
2023-01-25T08:28:56.639Z,60.10
2023-01-25T08:31:25.803Z,61.33
2023-01-25T08:33:52.899Z,66.35
2023-01-25T08:36:20.280Z,59.33
2023-01-25T08:38:47.650Z,49.03
2023-01-25T08:41:19.505Z,46.40
2023-01-25T08:43:46.719Z,49.88
2023-01-25T08:46:14.585Z,53.65
2023-01-25T08:48:41.573Z,54.58
2023-01-25T08:51:09.315Z,51.13
2023-01-25T08:53:36.278Z,46.28
2023-01-25T08:56:05.179Z,51.38
2023-01-25T08:58:32.343Z,49.58
2023-01-25T09:01:04.385Z,48.13
2023-01-25T09:05:58.573Z,44.20
2023-01-25T09:08:25.613Z,45.72
2023-01-25T09:10:52.746Z,46.80
2023-01-25T09:13:19.801Z,45.20
2023-01-25T09:15:46.815Z,52.83
2023-01-25T09:18:14.753Z,47.25
2023-01-25T09:20:41.720Z,50.20
2023-01-25T09:23:08.782Z,44.50
2023-01-25T09:25:36.379Z,47.83
2023-01-25T09:28:12.021Z,45.72
2023-01-25T09:30:47.362Z,47.63
2023-01-25T09:33:26.901Z,55.03
2023-01-25T09:35:54.039Z,47.45
2023-01-25T09:38:21.472Z,53.20
2023-01-25T09:40:58.329Z,50.97
2023-01-25T09:43:54.828Z,47.65
2023-01-25T09:46:49.975Z,50.33
2023-01-25T09:49:48.106Z,53.28
2023-01-25T09:52:23.656Z,53.72
2023-01-25T09:54:51.115Z,57.83
2023-01-25T09:57:34.014Z,53.55
2023-01-25T10:00:04.261Z,49.47
2023-01-25T10:02:39.044Z,51.10
2023-01-25T10:05:13.810Z,45.10
2023-01-25T10:08:14.580Z,46.30
2023-01-25T10:10:42.783Z,49.58
2023-01-25T10:13:14.802Z,48.05
2023-01-25T10:18:36.532Z,43.88
2023-01-25T10:21:08.278Z,44.78
2023-01-25T10:23:41.635Z,43.00
2023-01-25T10:26:16.948Z,45.90
2023-01-25T10:28:53.561Z,43.72
2023-01-25T10:31:23.072Z,45.50
2023-01-25T10:33:50.158Z,47.13
2023-01-25T10:36:18.841Z,45.67
2023-01-25T10:38:47.508Z,43.85
2023-01-25T10:41:28.500Z,47.72
2023-01-25T10:44:21.673Z,45.40
2023-01-25T10:47:04.042Z,45.95
2023-01-25T10:49:48.823Z,42.13
2023-01-25T10:52:21.443Z,40.08
2023-01-25T10:54:52.169Z,37.38
2023-01-25T10:57:20.952Z,39.95
2023-01-25T10:59:50.146Z,36.22
2023-01-25T11:02:40.485Z,39.35
2023-01-25T11:05:34.417Z,37.63
2023-01-25T11:08:32.999Z,34.03
2023-01-25T11:11:00.094Z,30.67
2023-01-25T11:13:32.837Z,27.33
2023-01-25T11:16:04.990Z,25.42
2023-01-25T11:18:34.936Z,23.17
2023-01-25T11:21:14.923Z,27.05
2023-01-25T11:23:41.879Z,25.15
2023-01-25T11:26:15.665Z,24.67
2023-01-25T11:28:44.510Z,23.45
2023-01-25T11:31:13.109Z,22.00
2023-01-25T11:33:40.936Z,17.42
2023-01-25T11:36:11.208Z,18.27
2023-01-25T11:38:39.087Z,19.35
2023-01-25T11:41:19.701Z,17.52
2023-01-25T11:44:11.326Z,14.52
2023-01-25T11:47:04.695Z,15.25
2023-01-25T11:49:31.837Z,15.35
2023-01-25T11:52:17.399Z,14.93
2023-01-25T11:55:05.566Z,16.23
2023-01-25T11:57:58.312Z,19.58
2023-01-25T12:00:48.642Z,18.90
2023-01-25T12:03:57.284Z,15.00
2023-01-25T12:06:57.359Z,16.08
2023-01-25T12:09:27.398Z,17.92
2023-01-25T12:12:12.377Z,17.80
2023-01-25T12:14:57.712Z,18.98
2023-01-25T12:17:33.756Z,19.02
2023-01-25T12:20:21.594Z,18.98
2023-01-25T12:23:31.320Z,18.80
2023-01-25T12:26:13.237Z,19.33
2023-01-25T12:31:17.579Z,20.83
2023-01-25T12:33:51.893Z,23.52
2023-01-25T12:36:23.667Z,18.77
2023-01-25T12:39:13.578Z,20.20
2023-01-25T12:41:46.352Z,21.17
2023-01-25T12:44:16.045Z,24.80
2023-01-25T12:47:05.709Z,24.65
2023-01-25T12:49:40.120Z,27.13
2023-01-25T12:52:15.967Z,27.67
2023-01-25T12:54:42.934Z,24.55
2023-01-25T12:57:36.053Z,28.02
2023-01-25T13:00:10.251Z,26.35
2023-01-25T13:02:48.452Z,28.83
2023-01-25T13:05:21.021Z,31.73
2023-01-25T13:08:32.089Z,35.72
2023-01-25T13:11:32.965Z,33.85
2023-01-25T13:14:36.125Z,37.58
2023-01-25T13:17:30.332Z,40.17
2023-01-25T13:19:57.515Z,35.83
2023-01-25T13:22:43.251Z,37.05
2023-01-25T13:25:23.107Z,38.35
2023-01-25T13:27:50.006Z,36.55
2023-01-25T13:30:29.245Z,33.95
2023-01-25T13:33:01.282Z,29.65
2023-01-25T13:38:03.139Z,29.65
2023-01-25T13:40:39.867Z,28.35
2023-01-25T13:43:17.293Z,30.00
2023-01-25T13:45:44.376Z,32.05
2023-01-25T13:48:11.496Z,32.63
2023-01-25T13:50:40.271Z,33.38
2023-01-25T13:53:22.482Z,32.13
2023-01-25T13:55:58.949Z,33.25
2023-01-25T13:58:30.740Z,30.27
2023-01-25T14:03:55.314Z,30.52
2023-01-25T14:06:26.569Z,32.10
2023-01-25T14:08:54.882Z,34.50
2023-01-25T14:11:29.746Z,31.05
2023-01-25T14:14:17.969Z,37.35
2023-01-25T14:16:45.220Z,39.53
2023-01-25T14:19:24.654Z,37.88
2023-01-25T14:22:20.725Z,42.05
2023-01-25T14:25:07.282Z,41.00
2023-01-25T14:27:35.737Z,40.08
2023-01-25T14:30:04.060Z,43.33
2023-01-25T14:32:31.101Z,44.25
2023-01-25T14:34:58.028Z,43.78
2023-01-25T14:37:24.976Z,40.67
2023-01-25T14:39:52.193Z,45.17
2023-01-25T14:42:19.339Z,45.28
2023-01-25T14:44:46.301Z,44.38
2023-01-25T14:47:21.331Z,46.38
2023-01-25T14:49:48.282Z,43.42
2023-01-25T14:52:17.709Z,40.67
2023-01-25T14:54:47.939Z,35.58
2023-01-25T14:57:35.234Z,31.73
2023-01-25T15:00:04.934Z,29.35
2023-01-25T15:02:39.580Z,31.15
2023-01-25T15:05:17.786Z,29.10
2023-01-25T15:07:49.791Z,29.83
2023-01-25T15:10:27.136Z,31.08
2023-01-25T15:13:14.516Z,33.72
2023-01-25T15:16:01.697Z,32.05
2023-01-25T15:18:51.569Z,31.48
2023-01-25T15:21:26.122Z,29.30
2023-01-25T15:23:54.476Z,30.35
2023-01-25T15:26:24.608Z,27.35
2023-01-25T15:28:56.211Z,27.70
2023-01-25T15:31:26.304Z,26.17
2023-01-25T15:33:54.020Z,29.20
2023-01-25T15:36:21.222Z,29.67
2023-01-25T15:38:48.301Z,26.33
2023-01-25T15:41:15.384Z,27.38
2023-01-25T15:43:43.226Z,25.30
2023-01-25T15:46:19.795Z,23.85
2023-01-25T15:48:47.691Z,25.63
2023-01-25T15:51:14.689Z,21.67
2023-01-25T15:53:41.867Z,24.90
2023-01-25T15:56:15.787Z,25.48
2023-01-25T15:58:44.391Z,25.60
2023-01-25T16:01:11.692Z,27.15
2023-01-25T16:03:41.675Z,24.05
2023-01-25T16:06:30.422Z,23.13
2023-01-25T16:08:58.848Z,24.30
2023-01-25T16:11:26.447Z,25.67
2023-01-25T16:13:53.433Z,24.15
2023-01-25T16:16:24.390Z,29.58
2023-01-25T16:18:51.459Z,29.00
2023-01-25T16:21:18.515Z,30.60
2023-01-25T16:23:45.819Z,30.15
2023-01-25T16:26:19.198Z,32.75
2023-01-25T16:28:46.751Z,31.52
2023-01-25T16:31:30.842Z,33.22
2023-01-25T16:33:59.575Z,32.10
2023-01-25T16:36:26.663Z,30.95
2023-01-25T16:38:53.729Z,31.10
2023-01-25T16:41:21.059Z,30.20
2023-01-25T16:43:48.811Z,32.78
2023-01-25T16:46:23.443Z,30.58
2023-01-25T16:48:52.281Z,31.40
2023-01-25T16:51:24.336Z,33.65
2023-01-25T16:56:31.055Z,36.67
2023-01-25T16:59:00.812Z,34.88
2023-01-25T17:01:28.238Z,34.80
2023-01-25T17:03:55.877Z,32.53
2023-01-25T17:06:31.179Z,33.85
2023-01-25T17:09:04.003Z,34.10
2023-01-25T17:11:35.783Z,30.55
2023-01-25T17:14:03.507Z,30.95
2023-01-25T17:16:30.668Z,31.90
2023-01-25T17:19:00.281Z,29.05
2023-01-25T17:21:27.640Z,29.80
2023-01-25T17:23:55.905Z,32.67
2023-01-25T17:26:23.380Z,31.08
2023-01-25T17:28:50.643Z,31.05
2023-01-25T17:31:22.575Z,33.42
2023-01-25T17:36:16.647Z,32.35
2023-01-25T17:38:43.809Z,32.28
2023-01-25T17:41:12.846Z,31.20
2023-01-25T17:43:39.930Z,31.38
2023-01-25T17:46:29.806Z,32.40
2023-01-25T17:48:57.191Z,33.08
2023-01-25T17:51:25.154Z,31.15
2023-01-25T17:53:52.926Z,35.58
2023-01-25T17:56:20.413Z,31.67
2023-01-25T17:58:47.605Z,35.63
2023-01-25T18:01:25.475Z,35.63
2023-01-25T18:03:53.612Z,37.20
2023-01-25T18:06:25.466Z,35.30
2023-01-25T18:08:54.158Z,32.80
2023-01-25T18:11:23.050Z,33.80
2023-01-25T18:13:51.697Z,33.90
2023-01-25T18:16:22.320Z,32.05
2023-01-25T18:18:50.924Z,36.70
2023-01-25T18:21:24.277Z,35.05
2023-01-25T18:23:53.121Z,33.72
2023-01-25T18:26:27.660Z,35.25
2023-01-25T18:28:55.575Z,38.28
2023-01-25T18:31:22.917Z,34.10
2023-01-25T18:33:50.494Z,37.35
2023-01-25T18:36:18.230Z,35.05
2023-01-25T18:38:45.499Z,36.85
2023-01-25T18:41:12.628Z,38.70
2023-01-25T18:43:39.718Z,37.70
2023-01-25T18:46:06.901Z,40.13
2023-01-25T18:48:34.141Z,40.20
2023-01-25T18:51:12.916Z,35.85
2023-01-25T18:53:41.204Z,42.17
2023-01-25T18:56:12.333Z,41.40
2023-01-25T18:58:39.362Z,39.78
2023-01-25T19:01:08.923Z,38.38
2023-01-25T19:03:35.983Z,37.85
2023-01-25T19:06:04.187Z,40.22
2023-01-25T19:08:35.777Z,40.95
2023-01-25T19:11:04.741Z,41.15
2023-01-25T19:13:41.841Z,37.70
2023-01-25T19:16:16.401Z,38.17
2023-01-25T19:18:47.116Z,36.38
2023-01-25T19:21:20.755Z,38.17
2023-01-25T19:23:48.231Z,36.10
2023-01-25T19:26:16.798Z,36.65
2023-01-25T19:28:45.093Z,35.28
2023-01-25T19:31:17.685Z,38.72
2023-01-25T19:33:45.886Z,36.95
2023-01-25T19:36:18.538Z,34.72
2023-01-25T19:38:46.585Z,35.60
2023-01-25T19:41:22.061Z,34.35
2023-01-25T19:43:53.145Z,35.75
2023-01-25T19:46:21.757Z,33.67
2023-01-25T19:48:50.157Z,32.53
2023-01-25T19:51:28.070Z,34.53
2023-01-25T19:53:58.959Z,36.78
2023-01-25T19:56:27.053Z,34.75
2023-01-25T19:58:54.093Z,35.08
2023-01-25T20:01:23.327Z,31.95
2023-01-25T20:03:50.426Z,30.42
2023-01-25T20:06:17.923Z,31.15
2023-01-25T20:08:46.933Z,29.50
2023-01-25T20:11:14.852Z,33.40
2023-01-25T20:13:42.574Z,31.08
2023-01-25T20:16:10.395Z,28.55
2023-01-25T20:18:37.525Z,28.42
2023-01-25T20:21:10.607Z,28.02
2023-01-25T20:23:39.235Z,30.85
2023-01-25T20:26:27.307Z,28.67
2023-01-25T20:28:55.480Z,28.52
2023-01-25T20:31:29.325Z,27.40
2023-01-25T20:34:00.925Z,29.23
2023-01-25T20:36:28.848Z,28.38
2023-01-25T20:38:56.480Z,27.73
2023-01-25T20:41:23.473Z,27.67
2023-01-25T20:43:52.064Z,27.02
2023-01-25T20:46:19.657Z,27.23
2023-01-25T20:48:46.923Z,29.38
2023-01-25T20:51:16.949Z,30.67
2023-01-25T20:53:47.599Z,27.40
2023-01-25T20:56:15.136Z,32.40
2023-01-25T20:58:42.757Z,30.48
2023-01-25T21:01:20.283Z,27.58
2023-01-25T21:03:47.639Z,32.17
2023-01-25T21:06:14.759Z,32.28
2023-01-25T21:08:41.851Z,30.30
2023-01-25T21:11:09.028Z,35.35
2023-01-25T21:13:36.183Z,31.50
2023-01-25T21:16:21.595Z,31.88
2023-01-25T21:18:50.376Z,33.67
2023-01-25T21:21:22.157Z,31.38
2023-01-25T21:23:50.131Z,35.08
2023-01-25T21:26:24.575Z,33.33
2023-01-25T21:28:51.958Z,35.90
2023-01-25T21:31:20.824Z,34.30
2023-01-25T21:33:48.156Z,33.17
2023-01-25T21:36:15.614Z,30.92
2023-01-25T21:38:46.995Z,31.00
2023-01-25T21:41:20.024Z,31.92
2023-01-25T21:44:08.829Z,33.50
2023-01-25T21:46:36.029Z,34.20
2023-01-25T21:49:23.407Z,31.90
2023-01-25T21:51:51.792Z,36.58
2023-01-25T21:54:19.686Z,31.33
2023-01-25T21:56:47.441Z,31.88
2023-01-25T21:59:14.738Z,32.03
2023-01-25T22:01:43.181Z,36.13
2023-01-25T22:04:10.452Z,30.02
2023-01-25T22:06:37.641Z,30.98
2023-01-25T22:09:05.019Z,30.67
2023-01-25T22:11:32.093Z,29.25
2023-01-25T22:13:59.382Z,30.75
2023-01-25T22:16:26.981Z,31.13
2023-01-25T22:18:53.976Z,31.60
2023-01-25T22:21:25.696Z,29.42
2023-01-25T22:23:52.838Z,29.10
2023-01-25T22:26:21.398Z,23.60
2023-01-25T22:28:53.371Z,19.85
2023-01-25T22:33:51.026Z,20.92
2023-01-25T22:36:20.019Z,19.77
2023-01-25T22:38:47.110Z,22.85
2023-01-25T22:41:18.649Z,20.25
2023-01-25T22:43:45.722Z,19.17
2023-01-25T22:46:14.673Z,18.35
2023-01-25T22:48:41.829Z,22.40
2023-01-25T22:51:25.365Z,19.52
2023-01-25T22:53:53.205Z,20.00
2023-01-25T22:56:39.179Z,20.63
2023-01-25T22:59:08.154Z,19.35
2023-01-25T23:01:35.210Z,20.02
2023-01-25T23:04:02.439Z,17.73
2023-01-25T23:06:31.118Z,17.50
2023-01-25T23:09:01.836Z,15.40
2023-01-25T23:11:35.783Z,15.55
2023-01-25T23:14:24.201Z,13.27
2023-01-25T23:16:51.206Z,13.63
2023-01-25T23:19:18.181Z,13.68
2023-01-25T23:21:45.335Z,13.82
2023-01-25T23:24:12.618Z,14.88
2023-01-25T23:26:46.227Z,14.60
2023-01-25T23:29:13.529Z,13.50
2023-01-25T23:31:40.596Z,13.05
2023-01-25T23:34:07.736Z,10.45
2023-01-25T23:36:36.204Z,12.02
2023-01-25T23:39:03.374Z,12.50
2023-01-25T23:41:30.640Z,11.48
2023-01-25T23:43:58.049Z,13.30
2023-01-25T23:46:25.465Z,14.63
2023-01-25T23:48:52.617Z,13.52
2023-01-25T23:51:19.939Z,15.38
2023-01-25T23:53:47.017Z,10.73
2023-01-25T23:56:18.948Z,12.15
